sensor_id;sensor_type;location;lat;lon;timestamp;temperature;humidity
19058;DHT22;9662;53.612;9.914;2022-08-21T00:00:08;17.40;99.90
19058;DHT22;9662;53.612;9.914;2022-08-21T00:02:35;17.40;99.90
19058;DHT22;9662;53.612;9.914;2022-08-21T00:05:04;17.40;99.90
19058;DHT22;9662;53.612;9.914;2022-08-21T00:07:31;17.30;99.90
19058;DHT22;9662;53.612;9.914;2022-08-21T00:09:58;17.30;99.90
19058;DHT22;9662;53.612;9.914;2022-08-21T00:12:25;17.30;99.90
19058;DHT22;9662;53.612;9.914;2022-08-21T00:14:52;17.30;99.90
19058;DHT22;9662;53.612;9.914;2022-08-21T00:17:19;17.30;99.90
19058;DHT22;9662;53.612;9.914;2022-08-21T00:19:46;17.30;99.90
19058;DHT22;9662;53.612;9.914;2022-08-21T00:22:14;17.30;99.90
19058;DHT22;9662;53.612;9.914;2022-08-21T00:24:41;17.30;99.90
19058;DHT22;9662;53.612;9.914;2022-08-21T00:27:07;17.30;99.90
19058;DHT22;9662;53.612;9.914;2022-08-21T00:29:34;17.30;99.90
19058;DHT22;9662;53.612;9.914;2022-08-21T00:32:01;17.20;99.90
19058;DHT22;9662;53.612;9.914;2022-08-21T00:34:28;17.30;99.90
19058;DHT22;9662;53.612;9.914;2022-08-21T00:36:55;17.20;99.90
19058;DHT22;9662;53.612;9.914;2022-08-21T00:39:23;17.20;99.90
19058;DHT22;9662;53.612;9.914;2022-08-21T00:41:50;17.10;99.90
19058;DHT22;9662;53.612;9.914;2022-08-21T00:44:17;17.10;99.90
19058;DHT22;9662;53.612;9.914;2022-08-21T00:46:44;17.10;99.90
19058;DHT22;9662;53.612;9.914;2022-08-21T00:49:12;17.10;99.90
19058;DHT22;9662;53.612;9.914;2022-08-21T00:51:43;17.10;99.90
19058;DHT22;9662;53.612;9.914;2022-08-21T00:54:14;17.00;99.90
19058;DHT22;9662;53.612;9.914;2022-08-21T00:56:43;17.00;99.90
19058;DHT22;9662;53.612;9.914;2022-08-21T00:59:10;17.00;99.90
19058;DHT22;9662;53.612;9.914;2022-08-21T01:01:38;16.90;99.90
19058;DHT22;9662;53.612;9.914;2022-08-21T01:04:05;16.90;99.90
19058;DHT22;9662;53.612;9.914;2022-08-21T01:06:31;17.00;99.90
19058;DHT22;9662;53.612;9.914;2022-08-21T01:08:58;17.00;99.90
19058;DHT22;9662;53.612;9.914;2022-08-21T01:11:25;16.90;99.90
19058;DHT22;9662;53.612;9.914;2022-08-21T01:13:53;16.90;99.90
19058;DHT22;9662;53.612;9.914;2022-08-21T01:16:21;16.90;99.90
19058;DHT22;9662;53.612;9.914;2022-08-21T01:18:49;16.90;99.90
19058;DHT22;9662;53.612;9.914;2022-08-21T01:21:20;16.80;99.90
19058;DHT22;9662;53.612;9.914;2022-08-21T01:23:49;16.90;99.90
19058;DHT22;9662;53.612;9.914;2022-08-21T01:26:20;16.80;99.90
19058;DHT22;9662;53.612;9.914;2022-08-21T01:28:51;16.80;99.90
19058;DHT22;9662;53.612;9.914;2022-08-21T01:31:19;16.80;99.90
19058;DHT22;9662;53.612;9.914;2022-08-21T01:33:48;16.80;99.90
19058;DHT22;9662;53.612;9.914;2022-08-21T01:36:15;16.70;99.90
19058;DHT22;9662;53.612;9.914;2022-08-21T01:38:44;16.80;99.90
19058;DHT22;9662;53.612;9.914;2022-08-21T01:41:12;16.70;99.90
19058;DHT22;9662;53.612;9.914;2022-08-21T01:43:39;16.70;99.90
19058;DHT22;9662;53.612;9.914;2022-08-21T01:46:06;16.70;99.90
19058;DHT22;9662;53.612;9.914;2022-08-21T01:48:33;16.70;99.90
19058;DHT22;9662;53.612;9.914;2022-08-21T01:51:01;16.70;99.90
19058;DHT22;9662;53.612;9.914;2022-08-21T01:53:27;16.60;99.90
19058;DHT22;9662;53.612;9.914;2022-08-21T01:55:56;16.60;99.90
19058;DHT22;9662;53.612;9.914;2022-08-21T01:58:22;16.60;99.90
19058;DHT22;9662;53.612;9.914;2022-08-21T02:00:49;16.60;99.90
19058;DHT22;9662;53.612;9.914;2022-08-21T02:03:16;16.60;99.90
19058;DHT22;9662;53.612;9.914;2022-08-21T02:05:43;16.60;99.90
19058;DHT22;9662;53.612;9.914;2022-08-21T02:08:09;16.60;99.90
19058;DHT22;9662;53.612;9.914;2022-08-21T02:10:36;16.60;99.90
19058;DHT22;9662;53.612;9.914;2022-08-21T02:13:05;16.60;99.90
19058;DHT22;9662;53.612;9.914;2022-08-21T02:15:32;16.60;99.90
19058;DHT22;9662;53.612;9.914;2022-08-21T02:18:00;16.70;99.90
19058;DHT22;9662;53.612;9.914;2022-08-21T02:20:30;16.70;99.90
19058;DHT22;9662;53.612;9.914;2022-08-21T02:22:57;16.70;99.90
19058;DHT22;9662;53.612;9.914;2022-08-21T02:25:26;16.60;99.90
19058;DHT22;9662;53.612;9.914;2022-08-21T02:27:53;16.60;99.90
19058;DHT22;9662;53.612;9.914;2022-08-21T02:30:24;16.50;99.90
19058;DHT22;9662;53.612;9.914;2022-08-21T02:32:51;16.60;99.90
19058;DHT22;9662;53.612;9.914;2022-08-21T02:35:18;16.50;99.90
19058;DHT22;9662;53.612;9.914;2022-08-21T02:37:47;16.50;99.90
19058;DHT22;9662;53.612;9.914;2022-08-21T02:40:16;16.50;99.90
19058;DHT22;9662;53.612;9.914;2022-08-21T02:42:44;16.50;99.90
19058;DHT22;9662;53.612;9.914;2022-08-21T02:45:11;16.50;99.90
19058;DHT22;9662;53.612;9.914;2022-08-21T02:47:40;16.50;99.90
19058;DHT22;9662;53.612;9.914;2022-08-21T02:50:12;16.50;99.90
19058;DHT22;9662;53.612;9.914;2022-08-21T02:52:39;16.50;99.90
19058;DHT22;9662;53.612;9.914;2022-08-21T02:55:06;16.50;99.90
19058;DHT22;9662;53.612;9.914;2022-08-21T02:57:33;16.50;99.90
19058;DHT22;9662;53.612;9.914;2022-08-21T02:59:59;16.50;99.90
19058;DHT22;9662;53.612;9.914;2022-08-21T03:02:26;16.50;99.90
19058;DHT22;9662;53.612;9.914;2022-08-21T03:04:54;16.50;99.90
19058;DHT22;9662;53.612;9.914;2022-08-21T03:07:21;16.50;99.90
19058;DHT22;9662;53.612;9.914;2022-08-21T03:09:48;16.50;99.90
19058;DHT22;9662;53.612;9.914;2022-08-21T03:12:15;16.50;99.90
19058;DHT22;9662;53.612;9.914;2022-08-21T03:14:41;16.40;99.90
19058;DHT22;9662;53.612;9.914;2022-08-21T03:17:08;16.40;99.90
19058;DHT22;9662;53.612;9.914;2022-08-21T03:19:35;16.50;99.90
19058;DHT22;9662;53.612;9.914;2022-08-21T03:22:04;16.40;99.90
19058;DHT22;9662;53.612;9.914;2022-08-21T03:24:31;16.30;99.90
19058;DHT22;9662;53.612;9.914;2022-08-21T03:26:58;16.30;99.90
19058;DHT22;9662;53.612;9.914;2022-08-21T03:29:25;16.30;99.90
19058;DHT22;9662;53.612;9.914;2022-08-21T03:31:52;16.30;99.90
19058;DHT22;9662;53.612;9.914;2022-08-21T03:34:20;16.20;99.90
19058;DHT22;9662;53.612;9.914;2022-08-21T03:36:47;16.20;99.90
19058;DHT22;9662;53.612;9.914;2022-08-21T03:39:16;16.10;99.90
19058;DHT22;9662;53.612;9.914;2022-08-21T03:41:44;16.10;99.90
19058;DHT22;9662;53.612;9.914;2022-08-21T03:44:10;16.10;99.90
19058;DHT22;9662;53.612;9.914;2022-08-21T03:46:37;16.10;99.90
19058;DHT22;9662;53.612;9.914;2022-08-21T03:49:05;16.00;99.90
19058;DHT22;9662;53.612;9.914;2022-08-21T03:51:32;16.00;99.90
19058;DHT22;9662;53.612;9.914;2022-08-21T03:54:00;16.00;99.90
19058;DHT22;9662;53.612;9.914;2022-08-21T03:56:29;16.10;99.90
19058;DHT22;9662;53.612;9.914;2022-08-21T03:58:55;16.10;99.90
19058;DHT22;9662;53.612;9.914;2022-08-21T04:01:22;16.00;99.90
19058;DHT22;9662;53.612;9.914;2022-08-21T04:03:49;16.00;99.90
19058;DHT22;9662;53.612;9.914;2022-08-21T04:06:16;16.10;99.90
19058;DHT22;9662;53.612;9.914;2022-08-21T04:08:43;16.10;99.90
19058;DHT22;9662;53.612;9.914;2022-08-21T04:11:10;16.10;99.90
19058;DHT22;9662;53.612;9.914;2022-08-21T04:13:38;16.00;99.90
19058;DHT22;9662;53.612;9.914;2022-08-21T04:16:06;16.00;99.90
19058;DHT22;9662;53.612;9.914;2022-08-21T04:18:33;16.10;99.90
19058;DHT22;9662;53.612;9.914;2022-08-21T04:21:02;16.10;99.90
19058;DHT22;9662;53.612;9.914;2022-08-21T04:23:29;16.20;99.90
19058;DHT22;9662;53.612;9.914;2022-08-21T04:25:57;16.20;99.90
19058;DHT22;9662;53.612;9.914;2022-08-21T04:28:25;16.20;99.90
19058;DHT22;9662;53.612;9.914;2022-08-21T04:30:53;16.30;99.90
19058;DHT22;9662;53.612;9.914;2022-08-21T04:33:21;16.40;99.90
19058;DHT22;9662;53.612;9.914;2022-08-21T04:35:48;16.40;99.90
19058;DHT22;9662;53.612;9.914;2022-08-21T04:38:15;16.40;99.90
19058;DHT22;9662;53.612;9.914;2022-08-21T04:40:42;16.50;99.90
19058;DHT22;9662;53.612;9.914;2022-08-21T04:43:10;16.60;99.90
19058;DHT22;9662;53.612;9.914;2022-08-21T04:45:39;16.50;99.90
19058;DHT22;9662;53.612;9.914;2022-08-21T04:48:09;16.60;99.90
19058;DHT22;9662;53.612;9.914;2022-08-21T04:50:39;16.70;99.90
19058;DHT22;9662;53.612;9.914;2022-08-21T04:53:11;16.80;99.90
19058;DHT22;9662;53.612;9.914;2022-08-21T04:55:40;16.80;99.90
19058;DHT22;9662;53.612;9.914;2022-08-21T04:58:09;16.80;99.90
19058;DHT22;9662;53.612;9.914;2022-08-21T05:00:39;16.90;99.90
19058;DHT22;9662;53.612;9.914;2022-08-21T05:03:09;16.90;99.90
19058;DHT22;9662;53.612;9.914;2022-08-21T05:05:38;17.00;99.90
19058;DHT22;9662;53.612;9.914;2022-08-21T05:08:06;17.10;99.90
19058;DHT22;9662;53.612;9.914;2022-08-21T05:10:34;17.20;99.90
19058;DHT22;9662;53.612;9.914;2022-08-21T05:13:01;17.30;99.90
19058;DHT22;9662;53.612;9.914;2022-08-21T05:15:28;17.50;99.90
19058;DHT22;9662;53.612;9.914;2022-08-21T05:17:56;17.60;99.90
19058;DHT22;9662;53.612;9.914;2022-08-21T05:20:24;17.70;99.90
19058;DHT22;9662;53.612;9.914;2022-08-21T05:22:51;17.80;99.90
19058;DHT22;9662;53.612;9.914;2022-08-21T05:25:17;17.90;99.90
19058;DHT22;9662;53.612;9.914;2022-08-21T05:27:44;18.10;99.90
19058;DHT22;9662;53.612;9.914;2022-08-21T05:30:11;18.30;99.90
19058;DHT22;9662;53.612;9.914;2022-08-21T05:32:38;18.40;99.90
19058;DHT22;9662;53.612;9.914;2022-08-21T05:35:07;18.50;99.90
19058;DHT22;9662;53.612;9.914;2022-08-21T05:37:35;18.50;99.90
19058;DHT22;9662;53.612;9.914;2022-08-21T05:40:04;18.60;99.90
19058;DHT22;9662;53.612;9.914;2022-08-21T05:42:31;18.60;99.90
19058;DHT22;9662;53.612;9.914;2022-08-21T05:44:57;18.70;99.90
19058;DHT22;9662;53.612;9.914;2022-08-21T05:47:24;18.80;99.90
19058;DHT22;9662;53.612;9.914;2022-08-21T05:49:51;18.80;99.90
19058;DHT22;9662;53.612;9.914;2022-08-21T05:52:19;18.90;99.90
19058;DHT22;9662;53.612;9.914;2022-08-21T05:54:47;18.90;99.90
19058;DHT22;9662;53.612;9.914;2022-08-21T05:57:14;19.00;99.90
19058;DHT22;9662;53.612;9.914;2022-08-21T05:59:41;19.20;99.90
19058;DHT22;9662;53.612;9.914;2022-08-21T06:02:08;19.30;99.90
19058;DHT22;9662;53.612;9.914;2022-08-21T06:04:35;19.50;99.90
19058;DHT22;9662;53.612;9.914;2022-08-21T06:07:02;19.70;99.90
19058;DHT22;9662;53.612;9.914;2022-08-21T06:09:29;19.90;99.90
19058;DHT22;9662;53.612;9.914;2022-08-21T06:11:57;20.00;99.90
19058;DHT22;9662;53.612;9.914;2022-08-21T06:14:24;20.00;99.90
19058;DHT22;9662;53.612;9.914;2022-08-21T06:16:51;20.10;99.90
19058;DHT22;9662;53.612;9.914;2022-08-21T06:19:18;20.10;99.90
19058;DHT22;9662;53.612;9.914;2022-08-21T06:21:44;20.00;99.90
19058;DHT22;9662;53.612;9.914;2022-08-21T06:24:11;20.40;99.90
19058;DHT22;9662;53.612;9.914;2022-08-21T06:26:38;20.60;99.90
19058;DHT22;9662;53.612;9.914;2022-08-21T06:29:06;20.80;99.90
19058;DHT22;9662;53.612;9.914;2022-08-21T06:31:35;20.90;99.90
19058;DHT22;9662;53.612;9.914;2022-08-21T06:34:02;21.00;99.90
19058;DHT22;9662;53.612;9.914;2022-08-21T06:36:29;21.00;99.90
19058;DHT22;9662;53.612;9.914;2022-08-21T06:38:56;21.00;99.90
19058;DHT22;9662;53.612;9.914;2022-08-21T06:41:23;20.90;99.90
19058;DHT22;9662;53.612;9.914;2022-08-21T06:43:49;20.90;99.90
19058;DHT22;9662;53.612;9.914;2022-08-21T06:46:17;20.80;99.90
19058;DHT22;9662;53.612;9.914;2022-08-21T06:48:44;20.70;99.90
19058;DHT22;9662;53.612;9.914;2022-08-21T06:51:11;20.60;99.90
19058;DHT22;9662;53.612;9.914;2022-08-21T06:53:38;20.50;99.90
19058;DHT22;9662;53.612;9.914;2022-08-21T06:56:05;20.40;99.90
19058;DHT22;9662;53.612;9.914;2022-08-21T06:58:32;20.40;99.90
19058;DHT22;9662;53.612;9.914;2022-08-21T07:00:58;20.40;99.90
19058;DHT22;9662;53.612;9.914;2022-08-21T07:03:30;20.50;99.90
19058;DHT22;9662;53.612;9.914;2022-08-21T07:05:57;20.30;99.90
19058;DHT22;9662;53.612;9.914;2022-08-21T07:08:25;20.50;99.90
19058;DHT22;9662;53.612;9.914;2022-08-21T07:10:53;21.10;99.90
19058;DHT22;9662;53.612;9.914;2022-08-21T07:13:21;22.10;99.90
19058;DHT22;9662;53.612;9.914;2022-08-21T07:15:49;23.30;97.40
19058;DHT22;9662;53.612;9.914;2022-08-21T07:18:15;24.50;94.20
19058;DHT22;9662;53.612;9.914;2022-08-21T07:20:44;25.00;91.50
19058;DHT22;9662;53.612;9.914;2022-08-21T07:23:23;25.10;90.00
19058;DHT22;9662;53.612;9.914;2022-08-21T07:25:50;24.70;90.40
19058;DHT22;9662;53.612;9.914;2022-08-21T07:28:17;24.50;91.10
19058;DHT22;9662;53.612;9.914;2022-08-21T07:30:44;24.20;91.60
19058;DHT22;9662;53.612;9.914;2022-08-21T07:33:12;23.90;92.50
19058;DHT22;9662;53.612;9.914;2022-08-21T07:35:38;23.60;92.40
19058;DHT22;9662;53.612;9.914;2022-08-21T07:38:07;23.40;93.20
19058;DHT22;9662;53.612;9.914;2022-08-21T07:40:34;23.30;94.40
19058;DHT22;9662;53.612;9.914;2022-08-21T07:43:01;23.10;94.90
19058;DHT22;9662;53.612;9.914;2022-08-21T07:45:28;22.90;94.90
19058;DHT22;9662;53.612;9.914;2022-08-21T07:47:56;22.70;95.70
19058;DHT22;9662;53.612;9.914;2022-08-21T07:50:23;22.70;96.00
19058;DHT22;9662;53.612;9.914;2022-08-21T07:52:50;22.70;96.40
19058;DHT22;9662;53.612;9.914;2022-08-21T07:55:19;22.60;97.00
19058;DHT22;9662;53.612;9.914;2022-08-21T07:57:47;22.50;97.30
19058;DHT22;9662;53.612;9.914;2022-08-21T08:00:16;22.40;97.50
19058;DHT22;9662;53.612;9.914;2022-08-21T08:02:45;22.30;98.20
19058;DHT22;9662;53.612;9.914;2022-08-21T08:05:14;22.30;98.50
19058;DHT22;9662;53.612;9.914;2022-08-21T08:07:41;22.30;99.10
19058;DHT22;9662;53.612;9.914;2022-08-21T08:10:09;22.40;99.80
19058;DHT22;9662;53.612;9.914;2022-08-21T08:12:40;22.30;99.70
19058;DHT22;9662;53.612;9.914;2022-08-21T08:15:10;22.30;99.90
19058;DHT22;9662;53.612;9.914;2022-08-21T08:17:37;22.30;99.90
19058;DHT22;9662;53.612;9.914;2022-08-21T08:20:05;22.40;99.90
19058;DHT22;9662;53.612;9.914;2022-08-21T08:22:35;22.30;99.90
19058;DHT22;9662;53.612;9.914;2022-08-21T08:25:02;22.40;99.90
19058;DHT22;9662;53.612;9.914;2022-08-21T08:27:30;22.30;99.90
19058;DHT22;9662;53.612;9.914;2022-08-21T08:30:00;22.00;99.90
19058;DHT22;9662;53.612;9.914;2022-08-21T08:32:27;22.30;99.90
19058;DHT22;9662;53.612;9.914;2022-08-21T08:34:54;22.30;99.90
19058;DHT22;9662;53.612;9.914;2022-08-21T08:37:21;22.40;99.90
19058;DHT22;9662;53.612;9.914;2022-08-21T08:39:48;22.40;99.90
19058;DHT22;9662;53.612;9.914;2022-08-21T08:42:18;22.10;99.90
19058;DHT22;9662;53.612;9.914;2022-08-21T08:44:48;22.30;99.90
19058;DHT22;9662;53.612;9.914;2022-08-21T08:47:18;22.20;99.90
19058;DHT22;9662;53.612;9.914;2022-08-21T08:49:49;22.00;99.90
19058;DHT22;9662;53.612;9.914;2022-08-21T08:52:26;22.20;99.90
19058;DHT22;9662;53.612;9.914;2022-08-21T08:55:02;21.90;99.90
19058;DHT22;9662;53.612;9.914;2022-08-21T08:57:29;22.30;99.90
19058;DHT22;9662;53.612;9.914;2022-08-21T08:59:59;22.50;99.90
19058;DHT22;9662;53.612;9.914;2022-08-21T09:02:27;22.60;99.90
19058;DHT22;9662;53.612;9.914;2022-08-21T09:04:55;22.60;99.90
19058;DHT22;9662;53.612;9.914;2022-08-21T09:07:30;22.70;99.90
19058;DHT22;9662;53.612;9.914;2022-08-21T09:10:05;22.80;99.90
19058;DHT22;9662;53.612;9.914;2022-08-21T09:12:41;22.80;99.90
19058;DHT22;9662;53.612;9.914;2022-08-21T09:15:15;22.70;99.90
19058;DHT22;9662;53.612;9.914;2022-08-21T09:17:57;22.80;99.90
19058;DHT22;9662;53.612;9.914;2022-08-21T09:20:36;22.60;99.90
19058;DHT22;9662;53.612;9.914;2022-08-21T09:23:13;22.10;99.90
19058;DHT22;9662;53.612;9.914;2022-08-21T09:25:54;21.80;99.90
19058;DHT22;9662;53.612;9.914;2022-08-21T09:28:22;21.70;99.90
19058;DHT22;9662;53.612;9.914;2022-08-21T09:30:50;21.90;99.90
19058;DHT22;9662;53.612;9.914;2022-08-21T09:33:18;22.30;99.90
19058;DHT22;9662;53.612;9.914;2022-08-21T09:35:51;22.50;99.90
19058;DHT22;9662;53.612;9.914;2022-08-21T09:38:26;22.80;99.90
19058;DHT22;9662;53.612;9.914;2022-08-21T09:40:57;22.70;99.90
19058;DHT22;9662;53.612;9.914;2022-08-21T09:43:24;22.80;99.90
19058;DHT22;9662;53.612;9.914;2022-08-21T09:46:03;22.70;99.90
19058;DHT22;9662;53.612;9.914;2022-08-21T09:48:42;23.00;99.90
19058;DHT22;9662;53.612;9.914;2022-08-21T09:51:12;23.10;99.50
19058;DHT22;9662;53.612;9.914;2022-08-21T09:53:42;23.10;99.90
19058;DHT22;9662;53.612;9.914;2022-08-21T09:56:18;23.50;99.50
19058;DHT22;9662;53.612;9.914;2022-08-21T09:59:14;23.60;99.80
19058;DHT22;9662;53.612;9.914;2022-08-21T10:01:43;23.40;98.90
19058;DHT22;9662;53.612;9.914;2022-08-21T10:04:12;23.80;98.80
19058;DHT22;9662;53.612;9.914;2022-08-21T10:06:39;24.00;99.50
19058;DHT22;9662;53.612;9.914;2022-08-21T10:09:08;24.30;98.80
19058;DHT22;9662;53.612;9.914;2022-08-21T10:11:35;24.30;98.10
19058;DHT22;9662;53.612;9.914;2022-08-21T10:14:10;24.30;96.80
19058;DHT22;9662;53.612;9.914;2022-08-21T10:16:46;24.10;95.80
19058;DHT22;9662;53.612;9.914;2022-08-21T10:19:22;24.20;96.00
19058;DHT22;9662;53.612;9.914;2022-08-21T10:22:02;24.50;95.30
19058;DHT22;9662;53.612;9.914;2022-08-21T10:24:37;24.50;94.80
19058;DHT22;9662;53.612;9.914;2022-08-21T10:27:16;24.60;95.40
19058;DHT22;9662;53.612;9.914;2022-08-21T10:29:51;24.60;95.00
19058;DHT22;9662;53.612;9.914;2022-08-21T10:32:37;24.60;94.20
19058;DHT22;9662;53.612;9.914;2022-08-21T10:35:13;24.70;94.00
19058;DHT22;9662;53.612;9.914;2022-08-21T10:37:48;24.80;92.60
19058;DHT22;9662;53.612;9.914;2022-08-21T10:40:24;24.90;92.60
19058;DHT22;9662;53.612;9.914;2022-08-21T10:43:03;25.00;92.10
19058;DHT22;9662;53.612;9.914;2022-08-21T10:45:48;25.20;93.20
19058;DHT22;9662;53.612;9.914;2022-08-21T10:48:24;25.40;93.30
19058;DHT22;9662;53.612;9.914;2022-08-21T10:51:06;25.50;91.70
19058;DHT22;9662;53.612;9.914;2022-08-21T10:53:43;25.50;91.00
19058;DHT22;9662;53.612;9.914;2022-08-21T10:56:16;25.30;90.50
19058;DHT22;9662;53.612;9.914;2022-08-21T10:58:56;25.30;89.80
19058;DHT22;9662;53.612;9.914;2022-08-21T11:01:26;25.20;90.20
19058;DHT22;9662;53.612;9.914;2022-08-21T11:04:07;24.70;88.20
19058;DHT22;9662;53.612;9.914;2022-08-21T11:06:39;24.40;88.10
19058;DHT22;9662;53.612;9.914;2022-08-21T11:09:12;24.30;90.40
19058;DHT22;9662;53.612;9.914;2022-08-21T11:11:42;24.50;91.20
19058;DHT22;9662;53.612;9.914;2022-08-21T11:14:23;24.40;90.20
19058;DHT22;9662;53.612;9.914;2022-08-21T11:16:56;24.20;90.10
19058;DHT22;9662;53.612;9.914;2022-08-21T11:19:28;24.00;89.60
19058;DHT22;9662;53.612;9.914;2022-08-21T11:22:02;24.10;90.50
19058;DHT22;9662;53.612;9.914;2022-08-21T11:24:37;24.10;89.80
19058;DHT22;9662;53.612;9.914;2022-08-21T11:27:13;23.90;90.60
19058;DHT22;9662;53.612;9.914;2022-08-21T11:29:44;24.00;90.30
19058;DHT22;9662;53.612;9.914;2022-08-21T11:32:52;24.20;89.60
19058;DHT22;9662;53.612;9.914;2022-08-21T11:35:28;24.60;88.10
19058;DHT22;9662;53.612;9.914;2022-08-21T11:38:07;24.50;86.90
19058;DHT22;9662;53.612;9.914;2022-08-21T11:40:47;24.80;88.10
19058;DHT22;9662;53.612;9.914;2022-08-21T11:43:22;24.40;85.30
19058;DHT22;9662;53.612;9.914;2022-08-21T11:45:54;24.20;84.20
19058;DHT22;9662;53.612;9.914;2022-08-21T11:48:35;23.90;86.10
19058;DHT22;9662;53.612;9.914;2022-08-21T11:51:09;24.10;87.90
19058;DHT22;9662;53.612;9.914;2022-08-21T11:53:39;23.90;87.70
19058;DHT22;9662;53.612;9.914;2022-08-21T11:56:14;23.60;87.90
19058;DHT22;9662;53.612;9.914;2022-08-21T11:58:45;23.70;89.20
19058;DHT22;9662;53.612;9.914;2022-08-21T12:01:17;23.80;90.50
19058;DHT22;9662;53.612;9.914;2022-08-21T12:03:52;24.00;90.60
19058;DHT22;9662;53.612;9.914;2022-08-21T12:06:29;24.00;90.80
19058;DHT22;9662;53.612;9.914;2022-08-21T12:09:02;24.00;90.70
19058;DHT22;9662;53.612;9.914;2022-08-21T12:11:29;24.00;90.90
19058;DHT22;9662;53.612;9.914;2022-08-21T12:14:00;24.20;91.20
19058;DHT22;9662;53.612;9.914;2022-08-21T12:16:31;24.40;91.00
19058;DHT22;9662;53.612;9.914;2022-08-21T12:19:06;24.40;90.00
19058;DHT22;9662;53.612;9.914;2022-08-21T12:21:34;24.50;88.80
19058;DHT22;9662;53.612;9.914;2022-08-21T12:24:18;24.60;88.40
19058;DHT22;9662;53.612;9.914;2022-08-21T12:26:50;24.70;89.50
19058;DHT22;9662;53.612;9.914;2022-08-21T12:29:22;24.80;88.30
19058;DHT22;9662;53.612;9.914;2022-08-21T12:31:57;24.90;88.40
19058;DHT22;9662;53.612;9.914;2022-08-21T12:34:32;24.90;89.20
19058;DHT22;9662;53.612;9.914;2022-08-21T12:37:03;25.00;89.10
19058;DHT22;9662;53.612;9.914;2022-08-21T12:39:35;25.20;87.90
19058;DHT22;9662;53.612;9.914;2022-08-21T12:42:06;25.30;87.60
19058;DHT22;9662;53.612;9.914;2022-08-21T12:44:38;25.30;85.10
19058;DHT22;9662;53.612;9.914;2022-08-21T12:47:15;25.20;83.70
19058;DHT22;9662;53.612;9.914;2022-08-21T12:49:51;24.90;81.20
19058;DHT22;9662;53.612;9.914;2022-08-21T12:52:21;24.80;83.60
19058;DHT22;9662;53.612;9.914;2022-08-21T12:54:49;24.80;82.30
19058;DHT22;9662;53.612;9.914;2022-08-21T12:57:22;25.10;82.30
19058;DHT22;9662;53.612;9.914;2022-08-21T12:59:54;25.20;78.80
19058;DHT22;9662;53.612;9.914;2022-08-21T13:02:24;25.40;79.00
19058;DHT22;9662;53.612;9.914;2022-08-21T13:04:53;25.40;79.10
19058;DHT22;9662;53.612;9.914;2022-08-21T13:07:26;25.60;79.40
19058;DHT22;9662;53.612;9.914;2022-08-21T13:09:57;25.10;79.40
19058;DHT22;9662;53.612;9.914;2022-08-21T13:12:25;25.40;81.20
19058;DHT22;9662;53.612;9.914;2022-08-21T13:14:56;25.40;81.50
19058;DHT22;9662;53.612;9.914;2022-08-21T13:17:24;25.30;81.30
19058;DHT22;9662;53.612;9.914;2022-08-21T13:19:56;24.90;80.00
19058;DHT22;9662;53.612;9.914;2022-08-21T13:22:24;25.10;81.00
19058;DHT22;9662;53.612;9.914;2022-08-21T13:24:51;25.00;80.30
19058;DHT22;9662;53.612;9.914;2022-08-21T13:27:23;24.80;81.60
19058;DHT22;9662;53.612;9.914;2022-08-21T13:30:06;25.10;81.00
19058;DHT22;9662;53.612;9.914;2022-08-21T13:32:35;25.00;80.50
19058;DHT22;9662;53.612;9.914;2022-08-21T13:35:11;25.10;81.50
19058;DHT22;9662;53.612;9.914;2022-08-21T13:37:39;24.90;81.70
19058;DHT22;9662;53.612;9.914;2022-08-21T13:40:09;25.00;81.60
19058;DHT22;9662;53.612;9.914;2022-08-21T13:42:40;24.80;81.20
19058;DHT22;9662;53.612;9.914;2022-08-21T13:45:13;24.60;81.40
19058;DHT22;9662;53.612;9.914;2022-08-21T13:47:40;24.60;81.20
19058;DHT22;9662;53.612;9.914;2022-08-21T13:50:10;24.50;82.60
19058;DHT22;9662;53.612;9.914;2022-08-21T13:52:47;24.50;82.70
19058;DHT22;9662;53.612;9.914;2022-08-21T13:55:17;24.60;82.50
19058;DHT22;9662;53.612;9.914;2022-08-21T13:57:45;24.30;81.80
19058;DHT22;9662;53.612;9.914;2022-08-21T14:00:15;24.20;81.60
19058;DHT22;9662;53.612;9.914;2022-08-21T14:02:46;24.30;81.00
19058;DHT22;9662;53.612;9.914;2022-08-21T14:05:20;24.10;81.70
19058;DHT22;9662;53.612;9.914;2022-08-21T14:07:47;24.20;82.80
19058;DHT22;9662;53.612;9.914;2022-08-21T14:10:19;24.30;84.00
19058;DHT22;9662;53.612;9.914;2022-08-21T14:12:50;24.00;81.50
19058;DHT22;9662;53.612;9.914;2022-08-21T14:15:22;24.20;83.40
19058;DHT22;9662;53.612;9.914;2022-08-21T14:17:51;24.30;83.80
19058;DHT22;9662;53.612;9.914;2022-08-21T14:20:29;24.40;83.50
19058;DHT22;9662;53.612;9.914;2022-08-21T14:22:56;24.00;81.60
19058;DHT22;9662;53.612;9.914;2022-08-21T14:25:29;24.10;84.40
19058;DHT22;9662;53.612;9.914;2022-08-21T14:28:03;24.20;83.30
19058;DHT22;9662;53.612;9.914;2022-08-21T14:30:33;24.30;83.90
19058;DHT22;9662;53.612;9.914;2022-08-21T14:33:01;24.40;83.60
19058;DHT22;9662;53.612;9.914;2022-08-21T14:35:28;24.60;84.00
19058;DHT22;9662;53.612;9.914;2022-08-21T14:37:55;24.70;83.20
19058;DHT22;9662;53.612;9.914;2022-08-21T14:40:23;24.60;82.60
19058;DHT22;9662;53.612;9.914;2022-08-21T14:42:51;24.80;81.50
19058;DHT22;9662;53.612;9.914;2022-08-21T14:45:25;24.90;81.90
19058;DHT22;9662;53.612;9.914;2022-08-21T14:47:52;24.80;81.00
19058;DHT22;9662;53.612;9.914;2022-08-21T14:50:19;24.70;81.20
19058;DHT22;9662;53.612;9.914;2022-08-21T14:52:46;25.00;82.20
19058;DHT22;9662;53.612;9.914;2022-08-21T14:55:14;25.00;80.00
19058;DHT22;9662;53.612;9.914;2022-08-21T14:57:45;24.90;79.30
19058;DHT22;9662;53.612;9.914;2022-08-21T15:00:16;24.80;79.80
19058;DHT22;9662;53.612;9.914;2022-08-21T15:02:45;24.80;80.90
19058;DHT22;9662;53.612;9.914;2022-08-21T15:05:12;24.90;80.80
19058;DHT22;9662;53.612;9.914;2022-08-21T15:07:39;24.80;79.10
19058;DHT22;9662;53.612;9.914;2022-08-21T15:10:07;24.80;80.10
19058;DHT22;9662;53.612;9.914;2022-08-21T15:12:35;24.90;80.20
19058;DHT22;9662;53.612;9.914;2022-08-21T15:15:03;24.80;80.30
19058;DHT22;9662;53.612;9.914;2022-08-21T15:17:30;24.80;79.10
19058;DHT22;9662;53.612;9.914;2022-08-21T15:19:58;24.90;80.30
19058;DHT22;9662;53.612;9.914;2022-08-21T15:22:25;24.90;80.40
19058;DHT22;9662;53.612;9.914;2022-08-21T15:24:52;24.90;81.30
19058;DHT22;9662;53.612;9.914;2022-08-21T15:27:19;25.10;80.30
19058;DHT22;9662;53.612;9.914;2022-08-21T15:29:46;25.20;79.90
19058;DHT22;9662;53.612;9.914;2022-08-21T15:32:18;25.30;80.20
19058;DHT22;9662;53.612;9.914;2022-08-21T15:34:45;25.50;79.80
19058;DHT22;9662;53.612;9.914;2022-08-21T15:37:13;25.50;78.00
19058;DHT22;9662;53.612;9.914;2022-08-21T15:39:40;25.60;78.90
19058;DHT22;9662;53.612;9.914;2022-08-21T15:42:07;25.60;79.20
19058;DHT22;9662;53.612;9.914;2022-08-21T15:44:34;25.60;78.70
19058;DHT22;9662;53.612;9.914;2022-08-21T15:47:01;25.20;78.70
19058;DHT22;9662;53.612;9.914;2022-08-21T15:49:28;25.30;79.10
19058;DHT22;9662;53.612;9.914;2022-08-21T15:51:54;25.40;78.90
19058;DHT22;9662;53.612;9.914;2022-08-21T15:54:23;25.30;78.70
19058;DHT22;9662;53.612;9.914;2022-08-21T15:56:50;25.20;79.10
19058;DHT22;9662;53.612;9.914;2022-08-21T15:59:19;25.00;78.50